sensor_id;sensor_type;location;lat;lon;timestamp;temperature;humidity
666;DHT22;315;48.738;9.126;2023-02-27T00:02:24;-1.30;99.90
666;DHT22;315;48.738;9.126;2023-02-27T00:04:50;-1.30;99.90
666;DHT22;315;48.738;9.126;2023-02-27T00:07:15;-1.30;99.90
666;DHT22;315;48.738;9.126;2023-02-27T00:09:41;-1.30;99.90
666;DHT22;315;48.738;9.126;2023-02-27T00:12:08;-1.30;99.90
666;DHT22;315;48.738;9.126;2023-02-27T00:14:34;-1.20;99.90
666;DHT22;315;48.738;9.126;2023-02-27T00:16:59;-1.20;99.90
666;DHT22;315;48.738;9.126;2023-02-27T00:19:25;-1.20;99.90
666;DHT22;315;48.738;9.126;2023-02-27T00:21:50;-1.20;99.90
666;DHT22;315;48.738;9.126;2023-02-27T00:24:16;-1.30;99.90
666;DHT22;315;48.738;9.126;2023-02-27T00:26:41;-1.20;99.90
666;DHT22;315;48.738;9.126;2023-02-27T00:29:07;-1.30;99.90
666;DHT22;315;48.738;9.126;2023-02-27T00:31:33;-1.30;99.90
666;DHT22;315;48.738;9.126;2023-02-27T00:33:59;-1.20;99.90
666;DHT22;315;48.738;9.126;2023-02-27T00:36:25;-1.20;99.90
666;DHT22;315;48.738;9.126;2023-02-27T00:38:50;-1.10;99.90
666;DHT22;315;48.738;9.126;2023-02-27T00:41:16;-1.10;99.90
666;DHT22;315;48.738;9.126;2023-02-27T00:43:41;-1.00;99.90
666;DHT22;315;48.738;9.126;2023-02-27T00:46:07;-1.10;99.90
666;DHT22;315;48.738;9.126;2023-02-27T00:48:33;-1.10;99.90
666;DHT22;315;48.738;9.126;2023-02-27T00:50:59;-1.10;99.90
666;DHT22;315;48.738;9.126;2023-02-27T00:53:24;-1.20;99.90
666;DHT22;315;48.738;9.126;2023-02-27T00:55:50;-1.20;99.90
666;DHT22;315;48.738;9.126;2023-02-27T00:58:15;-1.30;99.90
666;DHT22;315;48.738;9.126;2023-02-27T01:00:41;-1.30;99.90
666;DHT22;315;48.738;9.126;2023-02-27T01:03:06;-1.30;99.90
666;DHT22;315;48.738;9.126;2023-02-27T01:05:32;-1.30;99.90
666;DHT22;315;48.738;9.126;2023-02-27T01:07:58;-1.40;99.90
666;DHT22;315;48.738;9.126;2023-02-27T01:10:23;-1.40;99.90
666;DHT22;315;48.738;9.126;2023-02-27T01:12:49;-1.30;99.90
666;DHT22;315;48.738;9.126;2023-02-27T01:15:14;-1.30;99.90
666;DHT22;315;48.738;9.126;2023-02-27T01:17:40;-1.30;99.90
666;DHT22;315;48.738;9.126;2023-02-27T01:20:06;-1.30;99.90
666;DHT22;315;48.738;9.126;2023-02-27T01:22:33;-1.30;99.90
666;DHT22;315;48.738;9.126;2023-02-27T01:24:58;-1.30;99.90
666;DHT22;315;48.738;9.126;2023-02-27T01:27:24;-1.40;99.90
666;DHT22;315;48.738;9.126;2023-02-27T01:29:50;-1.50;99.90
666;DHT22;315;48.738;9.126;2023-02-27T01:32:15;-1.50;99.90
666;DHT22;315;48.738;9.126;2023-02-27T01:34:41;-1.50;99.90
666;DHT22;315;48.738;9.126;2023-02-27T01:37:06;-1.50;99.90
666;DHT22;315;48.738;9.126;2023-02-27T01:39:32;-1.50;99.90
666;DHT22;315;48.738;9.126;2023-02-27T01:41:58;-1.60;99.90
666;DHT22;315;48.738;9.126;2023-02-27T01:44:26;-1.50;99.90
666;DHT22;315;48.738;9.126;2023-02-27T01:46:53;-1.50;99.90
666;DHT22;315;48.738;9.126;2023-02-27T01:49:31;-1.60;99.90
666;DHT22;315;48.738;9.126;2023-02-27T01:52:01;-1.60;99.90
666;DHT22;315;48.738;9.126;2023-02-27T01:54:33;-1.60;99.90
666;DHT22;315;48.738;9.126;2023-02-27T01:56:59;-1.60;99.90
666;DHT22;315;48.738;9.126;2023-02-27T01:59:27;-1.60;99.90
666;DHT22;315;48.738;9.126;2023-02-27T02:01:55;-1.60;99.90
666;DHT22;315;48.738;9.126;2023-02-27T02:04:25;-1.60;99.90
666;DHT22;315;48.738;9.126;2023-02-27T02:07:01;-1.60;99.90
666;DHT22;315;48.738;9.126;2023-02-27T02:09:28;-1.70;99.90
666;DHT22;315;48.738;9.126;2023-02-27T02:11:54;-1.60;99.90
666;DHT22;315;48.738;9.126;2023-02-27T02:14:20;-1.60;99.90
666;DHT22;315;48.738;9.126;2023-02-27T02:17:04;-1.70;99.90
666;DHT22;315;48.738;9.126;2023-02-27T02:20:04;-1.70;99.90
666;DHT22;315;48.738;9.126;2023-02-27T02:23:15;-1.80;99.90
666;DHT22;315;48.738;9.126;2023-02-27T02:31:57;-1.70;99.90
666;DHT22;315;48.738;9.126;2023-02-27T02:43:04;-1.70;99.90
666;DHT22;315;48.738;9.126;2023-02-27T02:48:26;-1.60;99.90
666;DHT22;315;48.738;9.126;2023-02-27T02:51:05;-1.60;99.90
666;DHT22;315;48.738;9.126;2023-02-27T02:53:53;-1.60;99.90
666;DHT22;315;48.738;9.126;2023-02-27T02:56:26;-1.60;99.90
666;DHT22;315;48.738;9.126;2023-02-27T02:59:10;-1.60;99.90
666;DHT22;315;48.738;9.126;2023-02-27T03:02:01;-1.60;99.90
666;DHT22;315;48.738;9.126;2023-02-27T03:07:05;-1.60;99.90
666;DHT22;315;48.738;9.126;2023-02-27T03:09:38;-1.60;99.90
666;DHT22;315;48.738;9.126;2023-02-27T03:12:08;-1.60;99.90
666;DHT22;315;48.738;9.126;2023-02-27T03:14:39;-1.60;99.90
666;DHT22;315;48.738;9.126;2023-02-27T03:17:09;-1.60;99.90
666;DHT22;315;48.738;9.126;2023-02-27T03:19:44;-1.60;99.90
666;DHT22;315;48.738;9.126;2023-02-27T03:22:16;-1.60;99.90
666;DHT22;315;48.738;9.126;2023-02-27T03:24:47;-1.60;99.90
666;DHT22;315;48.738;9.126;2023-02-27T03:27:15;-1.70;99.90
666;DHT22;315;48.738;9.126;2023-02-27T03:29:53;-1.70;99.90
666;DHT22;315;48.738;9.126;2023-02-27T03:35:36;-1.70;99.90
666;DHT22;315;48.738;9.126;2023-02-27T03:38:12;-1.70;99.90
666;DHT22;315;48.738;9.126;2023-02-27T03:40:55;-1.70;99.90
666;DHT22;315;48.738;9.126;2023-02-27T03:43:27;-1.70;99.90
666;DHT22;315;48.738;9.126;2023-02-27T03:46:15;-1.80;99.90
666;DHT22;315;48.738;9.126;2023-02-27T03:48:41;-1.80;99.90
666;DHT22;315;48.738;9.126;2023-02-27T03:51:18;-1.70;99.90
666;DHT22;315;48.738;9.126;2023-02-27T03:53:47;-1.80;99.90
666;DHT22;315;48.738;9.126;2023-02-27T03:56:15;-1.70;99.90
666;DHT22;315;48.738;9.126;2023-02-27T03:58:42;-1.80;99.90
666;DHT22;315;48.738;9.126;2023-02-27T04:01:08;-1.70;99.90
666;DHT22;315;48.738;9.126;2023-02-27T04:03:40;-1.70;99.90
666;DHT22;315;48.738;9.126;2023-02-27T04:06:07;-1.70;99.90
666;DHT22;315;48.738;9.126;2023-02-27T04:09:05;-1.80;99.90
666;DHT22;315;48.738;9.126;2023-02-27T04:11:51;-1.80;99.90
666;DHT22;315;48.738;9.126;2023-02-27T04:14:35;-1.80;99.90
666;DHT22;315;48.738;9.126;2023-02-27T04:17:15;-1.80;99.90
666;DHT22;315;48.738;9.126;2023-02-27T04:22:37;-1.80;99.90
666;DHT22;315;48.738;9.126;2023-02-27T04:25:16;-1.90;99.90
666;DHT22;315;48.738;9.126;2023-02-27T04:28:04;-1.80;99.90
666;DHT22;315;48.738;9.126;2023-02-27T04:30:58;-1.90;99.90
666;DHT22;315;48.738;9.126;2023-02-27T04:33:40;-1.90;99.90
666;DHT22;315;48.738;9.126;2023-02-27T04:39:18;-2.00;99.90
666;DHT22;315;48.738;9.126;2023-02-27T04:41:45;-2.00;99.90
666;DHT22;315;48.738;9.126;2023-02-27T04:44:14;-2.00;99.90
666;DHT22;315;48.738;9.126;2023-02-27T04:46:42;-2.00;99.90
666;DHT22;315;48.738;9.126;2023-02-27T04:49:15;-2.00;99.90
666;DHT22;315;48.738;9.126;2023-02-27T04:52:34;-2.00;99.90
666;DHT22;315;48.738;9.126;2023-02-27T04:55:08;-2.00;99.90
666;DHT22;315;48.738;9.126;2023-02-27T04:57:45;-2.00;99.90
666;DHT22;315;48.738;9.126;2023-02-27T05:00:13;-2.10;99.90
666;DHT22;315;48.738;9.126;2023-02-27T05:02:46;-2.10;99.90
666;DHT22;315;48.738;9.126;2023-02-27T05:05:18;-2.10;99.90
666;DHT22;315;48.738;9.126;2023-02-27T05:07:55;-2.10;99.90
666;DHT22;315;48.738;9.126;2023-02-27T05:10:34;-2.10;99.90
666;DHT22;315;48.738;9.126;2023-02-27T05:13:13;-2.10;99.90
666;DHT22;315;48.738;9.126;2023-02-27T05:15:53;-2.10;99.90
666;DHT22;315;48.738;9.126;2023-02-27T05:18:20;-2.20;99.90
666;DHT22;315;48.738;9.126;2023-02-27T05:26:18;-2.20;99.90
666;DHT22;315;48.738;9.126;2023-02-27T05:31:39;-2.30;99.90
666;DHT22;315;48.738;9.126;2023-02-27T05:36:39;-2.20;99.90
666;DHT22;315;48.738;9.126;2023-02-27T05:39:08;-2.30;99.90
666;DHT22;315;48.738;9.126;2023-02-27T05:41:45;-2.20;99.90
666;DHT22;315;48.738;9.126;2023-02-27T05:44:24;-2.20;99.90
666;DHT22;315;48.738;9.126;2023-02-27T05:46:56;-2.20;99.90
666;DHT22;315;48.738;9.126;2023-02-27T05:49:30;-2.30;99.90
666;DHT22;315;48.738;9.126;2023-02-27T05:51:59;-2.30;99.90
666;DHT22;315;48.738;9.126;2023-02-27T05:54:41;-2.30;99.90
666;DHT22;315;48.738;9.126;2023-02-27T05:57:10;-2.30;99.90
666;DHT22;315;48.738;9.126;2023-02-27T05:59:58;-2.40;99.90
666;DHT22;315;48.738;9.126;2023-02-27T06:02:25;-2.30;99.90
666;DHT22;315;48.738;9.126;2023-02-27T06:04:50;-2.30;99.90
666;DHT22;315;48.738;9.126;2023-02-27T06:07:17;-2.40;99.90
666;DHT22;315;48.738;9.126;2023-02-27T06:09:43;-2.30;99.90
666;DHT22;315;48.738;9.126;2023-02-27T06:12:09;-2.30;99.90
666;DHT22;315;48.738;9.126;2023-02-27T06:14:34;-2.30;99.90
666;DHT22;315;48.738;9.126;2023-02-27T06:17:01;-2.30;99.90
666;DHT22;315;48.738;9.126;2023-02-27T06:19:26;-2.30;99.90
666;DHT22;315;48.738;9.126;2023-02-27T06:21:52;-2.30;99.90
666;DHT22;315;48.738;9.126;2023-02-27T06:24:17;-2.30;99.90
666;DHT22;315;48.738;9.126;2023-02-27T06:26:43;-2.30;99.90
666;DHT22;315;48.738;9.126;2023-02-27T06:29:09;-2.30;99.90
666;DHT22;315;48.738;9.126;2023-02-27T06:31:34;-2.30;99.90
666;DHT22;315;48.738;9.126;2023-02-27T06:34:00;-2.30;99.90
666;DHT22;315;48.738;9.126;2023-02-27T06:36:25;-2.30;99.90
666;DHT22;315;48.738;9.126;2023-02-27T06:38:53;-2.20;99.90
666;DHT22;315;48.738;9.126;2023-02-27T06:41:18;-2.20;99.90
666;DHT22;315;48.738;9.126;2023-02-27T06:43:44;-2.20;99.90
666;DHT22;315;48.738;9.126;2023-02-27T06:46:09;-2.10;99.90
666;DHT22;315;48.738;9.126;2023-02-27T06:48:35;-2.00;99.90
666;DHT22;315;48.738;9.126;2023-02-27T06:51:00;-1.90;99.90
666;DHT22;315;48.738;9.126;2023-02-27T06:53:28;-1.70;99.90
666;DHT22;315;48.738;9.126;2023-02-27T06:55:53;-1.40;99.90
666;DHT22;315;48.738;9.126;2023-02-27T06:58:19;-1.10;99.90
666;DHT22;315;48.738;9.126;2023-02-27T07:00:45;-0.80;99.90
666;DHT22;315;48.738;9.126;2023-02-27T07:03:11;-0.60;99.90
666;DHT22;315;48.738;9.126;2023-02-27T07:05:37;-0.40;99.90
666;DHT22;315;48.738;9.126;2023-02-27T07:08:02;-0.40;99.90
666;DHT22;315;48.738;9.126;2023-02-27T07:10:28;-0.20;99.90
666;DHT22;315;48.738;9.126;2023-02-27T07:12:54;-0.10;99.90
666;DHT22;315;48.738;9.126;2023-02-27T07:15:20;0.00;99.90
666;DHT22;315;48.738;9.126;2023-02-27T07:17:46;0.20;99.90
666;DHT22;315;48.738;9.126;2023-02-27T07:20:11;0.40;99.90
666;DHT22;315;48.738;9.126;2023-02-27T07:22:38;0.60;99.90
666;DHT22;315;48.738;9.126;2023-02-27T07:25:04;0.70;99.90
666;DHT22;315;48.738;9.126;2023-02-27T07:27:30;0.90;99.90
666;DHT22;315;48.738;9.126;2023-02-27T07:29:56;1.00;99.90
666;DHT22;315;48.738;9.126;2023-02-27T07:32:21;1.10;99.90
666;DHT22;315;48.738;9.126;2023-02-27T07:34:47;1.10;99.90
666;DHT22;315;48.738;9.126;2023-02-27T07:37:13;1.10;99.90
666;DHT22;315;48.738;9.126;2023-02-27T07:39:38;1.20;99.90
666;DHT22;315;48.738;9.126;2023-02-27T07:42:04;1.40;99.90
666;DHT22;315;48.738;9.126;2023-02-27T07:44:29;1.60;99.90
666;DHT22;315;48.738;9.126;2023-02-27T07:46:55;1.60;99.90
666;DHT22;315;48.738;9.126;2023-02-27T07:49:20;1.60;99.90
666;DHT22;315;48.738;9.126;2023-02-27T07:51:46;1.80;99.90
666;DHT22;315;48.738;9.126;2023-02-27T07:54:11;2.00;99.90
666;DHT22;315;48.738;9.126;2023-02-27T07:56:38;2.10;99.90
666;DHT22;315;48.738;9.126;2023-02-27T07:59:03;2.30;99.90
666;DHT22;315;48.738;9.126;2023-02-27T08:01:29;2.60;99.90
666;DHT22;315;48.738;9.126;2023-02-27T08:03:55;2.80;99.90
666;DHT22;315;48.738;9.126;2023-02-27T08:06:21;2.90;99.90
666;DHT22;315;48.738;9.126;2023-02-27T08:08:48;3.00;99.90
666;DHT22;315;48.738;9.126;2023-02-27T08:11:13;3.10;99.90
666;DHT22;315;48.738;9.126;2023-02-27T08:13:39;3.30;99.90
666;DHT22;315;48.738;9.126;2023-02-27T08:16:06;3.50;99.90
666;DHT22;315;48.738;9.126;2023-02-27T08:18:31;3.50;99.90
666;DHT22;315;48.738;9.126;2023-02-27T08:20:57;3.80;99.90
666;DHT22;315;48.738;9.126;2023-02-27T08:23:22;3.70;99.90
666;DHT22;315;48.738;9.126;2023-02-27T08:25:48;3.80;99.90
666;DHT22;315;48.738;9.126;2023-02-27T08:28:14;3.90;99.90
666;DHT22;315;48.738;9.126;2023-02-27T08:30:39;4.20;99.90
666;DHT22;315;48.738;9.126;2023-02-27T08:33:05;4.10;99.90
666;DHT22;315;48.738;9.126;2023-02-27T08:35:31;4.40;99.90
666;DHT22;315;48.738;9.126;2023-02-27T08:37:56;4.70;99.90
666;DHT22;315;48.738;9.126;2023-02-27T08:40:22;5.10;99.90
666;DHT22;315;48.738;9.126;2023-02-27T08:42:47;5.30;99.90
666;DHT22;315;48.738;9.126;2023-02-27T08:45:15;5.60;99.90
666;DHT22;315;48.738;9.126;2023-02-27T08:47:43;5.80;99.90
666;DHT22;315;48.738;9.126;2023-02-27T08:50:10;6.10;99.90
666;DHT22;315;48.738;9.126;2023-02-27T08:52:37;6.50;98.50
666;DHT22;315;48.738;9.126;2023-02-27T08:55:02;6.80;96.90
666;DHT22;315;48.738;9.126;2023-02-27T08:57:28;6.80;94.90
666;DHT22;315;48.738;9.126;2023-02-27T08:59:54;6.90;94.40
666;DHT22;315;48.738;9.126;2023-02-27T09:02:19;7.50;93.40
666;DHT22;315;48.738;9.126;2023-02-27T09:04:48;7.50;91.20
666;DHT22;315;48.738;9.126;2023-02-27T09:07:13;7.90;90.90
666;DHT22;315;48.738;9.126;2023-02-27T09:09:39;7.90;88.50
666;DHT22;315;48.738;9.126;2023-02-27T09:12:04;8.20;87.90
666;DHT22;315;48.738;9.126;2023-02-27T09:14:30;8.60;84.70
666;DHT22;315;48.738;9.126;2023-02-27T09:16:55;8.80;83.00
666;DHT22;315;48.738;9.126;2023-02-27T09:19:22;9.30;81.40
666;DHT22;315;48.738;9.126;2023-02-27T09:21:48;9.90;77.00
666;DHT22;315;48.738;9.126;2023-02-27T09:24:13;9.80;74.70
666;DHT22;315;48.738;9.126;2023-02-27T09:26:38;9.60;74.30
666;DHT22;315;48.738;9.126;2023-02-27T09:29:04;10.40;70.80
666;DHT22;315;48.738;9.126;2023-02-27T09:31:30;9.90;69.40
666;DHT22;315;48.738;9.126;2023-02-27T09:33:55;10.00;69.90
666;DHT22;315;48.738;9.126;2023-02-27T09:36:22;10.90;68.40
666;DHT22;315;48.738;9.126;2023-02-27T09:38:47;11.50;64.40
666;DHT22;315;48.738;9.126;2023-02-27T09:41:29;10.70;61.60
666;DHT22;315;48.738;9.126;2023-02-27T09:43:57;11.00;63.70
666;DHT22;315;48.738;9.126;2023-02-27T09:46:23;11.20;60.50
666;DHT22;315;48.738;9.126;2023-02-27T09:48:52;10.40;60.90
666;DHT22;315;48.738;9.126;2023-02-27T09:51:19;11.40;61.30
666;DHT22;315;48.738;9.126;2023-02-27T09:53:47;11.50;59.10
666;DHT22;315;48.738;9.126;2023-02-27T09:56:35;12.30;58.80
666;DHT22;315;48.738;9.126;2023-02-27T10:02:15;13.10;53.10
666;DHT22;315;48.738;9.126;2023-02-27T10:05:05;13.00;53.00
666;DHT22;315;48.738;9.126;2023-02-27T10:15:38;13.40;47.40
666;DHT22;315;48.738;9.126;2023-02-27T10:18:20;11.60;48.30
666;DHT22;315;48.738;9.126;2023-02-27T10:20:54;10.60;50.10
666;DHT22;315;48.738;9.126;2023-02-27T10:23:34;9.90;50.60
666;DHT22;315;48.738;9.126;2023-02-27T10:26:00;10.80;51.10
666;DHT22;315;48.738;9.126;2023-02-27T10:28:27;11.60;48.70
666;DHT22;315;48.738;9.126;2023-02-27T10:30:55;11.80;47.90
666;DHT22;315;48.738;9.126;2023-02-27T10:33:38;11.70;47.70
666;DHT22;315;48.738;9.126;2023-02-27T10:36:04;12.00;46.80
666;DHT22;315;48.738;9.126;2023-02-27T10:38:42;10.90;47.00
666;DHT22;315;48.738;9.126;2023-02-27T10:41:14;11.40;47.50
666;DHT22;315;48.738;9.126;2023-02-27T10:43:41;11.70;47.00
666;DHT22;315;48.738;9.126;2023-02-27T10:46:24;12.60;46.00
666;DHT22;315;48.738;9.126;2023-02-27T10:48:49;12.00;45.20
666;DHT22;315;48.738;9.126;2023-02-27T10:51:34;11.60;45.60
666;DHT22;315;48.738;9.126;2023-02-27T10:54:22;10.80;44.90
666;DHT22;315;48.738;9.126;2023-02-27T10:56:53;10.90;45.80
666;DHT22;315;48.738;9.126;2023-02-27T10:59:32;11.80;45.00
666;DHT22;315;48.738;9.126;2023-02-27T11:02:02;12.20;44.00
666;DHT22;315;48.738;9.126;2023-02-27T11:04:35;11.40;44.20
666;DHT22;315;48.738;9.126;2023-02-27T11:07:08;11.20;43.90
666;DHT22;315;48.738;9.126;2023-02-27T11:09:35;11.20;44.50
666;DHT22;315;48.738;9.126;2023-02-27T11:17:32;11.60;43.10
666;DHT22;315;48.738;9.126;2023-02-27T11:20:00;11.10;44.30
666;DHT22;315;48.738;9.126;2023-02-27T11:22:28;11.70;44.60
666;DHT22;315;48.738;9.126;2023-02-27T11:25:17;12.20;43.80
666;DHT22;315;48.738;9.126;2023-02-27T11:27:43;12.30;43.50
666;DHT22;315;48.738;9.126;2023-02-27T11:30:30;13.00;43.00
666;DHT22;315;48.738;9.126;2023-02-27T11:32:58;14.40;41.40
666;DHT22;315;48.738;9.126;2023-02-27T11:35:33;13.80;39.80
666;DHT22;315;48.738;9.126;2023-02-27T11:38:07;13.30;40.70
666;DHT22;315;48.738;9.126;2023-02-27T11:40:49;13.40;40.90
666;DHT22;315;48.738;9.126;2023-02-27T11:43:27;12.10;41.40
666;DHT22;315;48.738;9.126;2023-02-27T11:46:00;10.80;43.40
666;DHT22;315;48.738;9.126;2023-02-27T11:48:34;11.50;43.30
666;DHT22;315;48.738;9.126;2023-02-27T11:51:26;12.90;42.70
666;DHT22;315;48.738;9.126;2023-02-27T11:54:12;14.50;40.70
666;DHT22;315;48.738;9.126;2023-02-27T11:56:45;14.10;40.00
666;DHT22;315;48.738;9.126;2023-02-27T11:59:16;14.10;39.50
666;DHT22;315;48.738;9.126;2023-02-27T12:07:35;10.60;43.70
666;DHT22;315;48.738;9.126;2023-02-27T12:10:21;10.80;44.50
666;DHT22;315;48.738;9.126;2023-02-27T12:12:49;10.10;44.80
666;DHT22;315;48.738;9.126;2023-02-27T12:15:36;10.50;44.80
666;DHT22;315;48.738;9.126;2023-02-27T12:18:29;9.60;45.50
666;DHT22;315;48.738;9.126;2023-02-27T12:21:02;9.20;47.10
666;DHT22;315;48.738;9.126;2023-02-27T12:23:42;7.70;47.40
666;DHT22;315;48.738;9.126;2023-02-27T12:29:10;7.20;48.70
666;DHT22;315;48.738;9.126;2023-02-27T12:31:43;6.90;49.20
666;DHT22;315;48.738;9.126;2023-02-27T12:34:22;6.60;50.10
666;DHT22;315;48.738;9.126;2023-02-27T12:36:51;8.90;49.00
666;DHT22;315;48.738;9.126;2023-02-27T12:39:22;9.50;50.20
666;DHT22;315;48.738;9.126;2023-02-27T12:50:52;8.30;50.40
666;DHT22;315;48.738;9.126;2023-02-27T12:53:30;10.60;47.70
666;DHT22;315;48.738;9.126;2023-02-27T12:56:19;11.50;45.60
666;DHT22;315;48.738;9.126;2023-02-27T13:03:58;6.50;50.60
666;DHT22;315;48.738;9.126;2023-02-27T13:06:33;5.90;52.20
666;DHT22;315;48.738;9.126;2023-02-27T13:14:43;9.10;47.90
666;DHT22;315;48.738;9.126;2023-02-27T13:20:23;9.40;47.40
666;DHT22;315;48.738;9.126;2023-02-27T13:26:11;8.80;47.90
666;DHT22;315;48.738;9.126;2023-02-27T13:28:38;7.40;50.00
666;DHT22;315;48.738;9.126;2023-02-27T13:32:00;6.60;51.10
666;DHT22;315;48.738;9.126;2023-02-27T13:34:48;6.00;52.80
666;DHT22;315;48.738;9.126;2023-02-27T13:37:14;5.40;53.70
666;DHT22;315;48.738;9.126;2023-02-27T13:39:51;6.20;54.40
666;DHT22;315;48.738;9.126;2023-02-27T13:47:55;9.60;47.50
666;DHT22;315;48.738;9.126;2023-02-27T13:52:46;6.80;51.80
666;DHT22;315;48.738;9.126;2023-02-27T13:55:32;5.90;52.30
666;DHT22;315;48.738;9.126;2023-02-27T13:58:03;5.40;53.50
666;DHT22;315;48.738;9.126;2023-02-27T14:00:31;5.30;54.40
666;DHT22;315;48.738;9.126;2023-02-27T14:03:07;5.10;55.00
666;DHT22;315;48.738;9.126;2023-02-27T14:05:44;4.80;55.90
666;DHT22;315;48.738;9.126;2023-02-27T14:08:26;4.40;56.90
666;DHT22;315;48.738;9.126;2023-02-27T14:11:07;4.80;57.60
666;DHT22;315;48.738;9.126;2023-02-27T14:22:01;5.50;56.30
666;DHT22;315;48.738;9.126;2023-02-27T14:24:34;5.40;57.10
666;DHT22;315;48.738;9.126;2023-02-27T14:27:03;5.30;58.00
666;DHT22;315;48.738;9.126;2023-02-27T14:29:31;4.80;59.00
666;DHT22;315;48.738;9.126;2023-02-27T14:32:00;4.70;59.20
666;DHT22;315;48.738;9.126;2023-02-27T14:34:27;4.60;59.90
666;DHT22;315;48.738;9.126;2023-02-27T14:36:55;4.50;60.90
666;DHT22;315;48.738;9.126;2023-02-27T14:39:30;4.50;61.00
666;DHT22;315;48.738;9.126;2023-02-27T14:45:20;4.60;61.80
666;DHT22;315;48.738;9.126;2023-02-27T14:47:50;4.80;60.80
666;DHT22;315;48.738;9.126;2023-02-27T14:50:32;4.90;61.20
666;DHT22;315;48.738;9.126;2023-02-27T14:52:58;4.70;61.40
666;DHT22;315;48.738;9.126;2023-02-27T14:55:28;4.50;63.30
666;DHT22;315;48.738;9.126;2023-02-27T15:02:55;3.80;65.70
666;DHT22;315;48.738;9.126;2023-02-27T15:05:28;4.00;67.10
666;DHT22;315;48.738;9.126;2023-02-27T15:07:55;3.90;65.40
666;DHT22;315;48.738;9.126;2023-02-27T15:10:26;3.90;65.90
666;DHT22;315;48.738;9.126;2023-02-27T15:12:55;3.90;65.60
666;DHT22;315;48.738;9.126;2023-02-27T15:15:21;4.00;66.00
666;DHT22;315;48.738;9.126;2023-02-27T15:17:50;4.00;66.50
666;DHT22;315;48.738;9.126;2023-02-27T15:20:33;4.10;65.90
666;DHT22;315;48.738;9.126;2023-02-27T15:23:16;3.80;67.10
666;DHT22;315;48.738;9.126;2023-02-27T15:25:44;3.80;67.90
666;DHT22;315;48.738;9.126;2023-02-27T15:28:18;3.90;67.70
666;DHT22;315;48.738;9.126;2023-02-27T15:30:48;3.90;67.60
666;DHT22;315;48.738;9.126;2023-02-27T15:33:15;3.80;67.10
666;DHT22;315;48.738;9.126;2023-02-27T15:35:44;3.60;68.40
666;DHT22;315;48.738;9.126;2023-02-27T15:38:31;3.60;68.70
666;DHT22;315;48.738;9.126;2023-02-27T15:40:58;3.60;68.10
666;DHT22;315;48.738;9.126;2023-02-27T15:43:26;3.60;68.40
666;DHT22;315;48.738;9.126;2023-02-27T15:45:52;3.30;68.70
666;DHT22;315;48.738;9.126;2023-02-27T15:48:19;3.20;70.20
666;DHT22;315;48.738;9.126;2023-02-27T15:50:51;3.20;71.20
666;DHT22;315;48.738;9.126;2023-02-27T15:53:20;3.20;71.10
666;DHT22;315;48.738;9.126;2023-02-27T15:55:50;3.10;71.40
666;DHT22;315;48.738;9.126;2023-02-27T15:58:29;3.00;72.50
666;DHT22;315;48.738;9.126;2023-02-27T16:01:07;3.00;73.30
666;DHT22;315;48.738;9.126;2023-02-27T16:03:40;3.00;71.50
666;DHT22;315;48.738;9.126;2023-02-27T16:09:02;2.90;71.60
666;DHT22;315;48.738;9.126;2023-02-27T16:11:35;2.80;71.30
666;DHT22;315;48.738;9.126;2023-02-27T16:14:01;2.80;72.00
666;DHT22;315;48.738;9.126;2023-02-27T16:16:35;2.80;72.70
666;DHT22;315;48.738;9.126;2023-02-27T16:19:25;2.80;73.30
666;DHT22;315;48.738;9.126;2023-02-27T16:22:11;2.70;72.50
666;DHT22;315;48.738;9.126;2023-02-27T16:24:37;2.70;74.00
666;DHT22;315;48.738;9.126;2023-02-27T16:27:03;2.60;73.70
666;DHT22;315;48.738;9.126;2023-02-27T16:29:39;2.60;74.50
666;DHT22;315;48.738;9.126;2023-02-27T16:32:28;2.60;75.70
666;DHT22;315;48.738;9.126;2023-02-27T16:35:20;2.70;76.50
666;DHT22;315;48.738;9.126;2023-02-27T16:37:47;2.70;75.00
666;DHT22;315;48.738;9.126;2023-02-27T16:40:22;2.70;75.70
666;DHT22;315;48.738;9.126;2023-02-27T16:42:48;2.60;75.80
666;DHT22;315;48.738;9.126;2023-02-27T16:45:20;2.50;77.40
666;DHT22;315;48.738;9.126;2023-02-27T16:47:48;2.40;79.40
666;DHT22;315;48.738;9.126;2023-02-27T16:50:23;2.30;80.10
666;DHT22;315;48.738;9.126;2023-02-27T16:52:50;2.30;81.50
666;DHT22;315;48.738;9.126;2023-02-27T16:55:16;2.40;82.50
666;DHT22;315;48.738;9.126;2023-02-27T16:57:41;2.40;82.20
666;DHT22;315;48.738;9.126;2023-02-27T17:00:10;2.40;82.60
666;DHT22;315;48.738;9.126;2023-02-27T17:02:36;2.30;82.00
666;DHT22;315;48.738;9.126;2023-02-27T17:05:03;2.10;81.50
666;DHT22;315;48.738;9.126;2023-02-27T17:07:28;2.10;82.40
666;DHT22;315;48.738;9.126;2023-02-27T17:09:54;2.20;81.50
666;DHT22;315;48.738;9.126;2023-02-27T17:12:20;2.20;82.20
666;DHT22;315;48.738;9.126;2023-02-27T17:14:46;2.20;81.10
666;DHT22;315;48.738;9.126;2023-02-27T17:17:11;2.10;80.70
666;DHT22;315;48.738;9.126;2023-02-27T17:19:37;2.10;80.00
666;DHT22;315;48.738;9.126;2023-02-27T17:22:03;2.10;80.70
666;DHT22;315;48.738;9.126;2023-02-27T17:24:28;2.00;80.80
666;DHT22;315;48.738;9.126;2023-02-27T17:26:54;2.00;81.80
666;DHT22;315;48.738;9.126;2023-02-27T17:29:21;2.10;82.20
666;DHT22;315;48.738;9.126;2023-02-27T17:31:47;2.10;82.10
666;DHT22;315;48.738;9.126;2023-02-27T17:34:12;2.10;81.80
666;DHT22;315;48.738;9.126;2023-02-27T17:36:39;2.00;82.00
666;DHT22;315;48.738;9.126;2023-02-27T17:39:05;2.00;82.50
666;DHT22;315;48.738;9.126;2023-02-27T17:41:31;1.90;81.60
666;DHT22;315;48.738;9.126;2023-02-27T17:43:58;1.80;81.90
666;DHT22;315;48.738;9.126;2023-02-27T17:46:26;1.80;82.40
666;DHT22;315;48.738;9.126;2023-02-27T17:48:53;1.70;83.50
666;DHT22;315;48.738;9.126;2023-02-27T17:51:20;1.70;84.20
666;DHT22;315;48.738;9.126;2023-02-27T17:53:46;1.70;85.20
666;DHT22;315;48.738;9.126;2023-02-27T17:56:12;1.80;85.10
666;DHT22;315;48.738;9.126;2023-02-27T17:58:38;1.90;85.20
666;DHT22;315;48.738;9.126;2023-02-27T18:01:06;1.80;84.50
666;DHT22;315;48.738;9.126;2023-02-27T18:03:32;1.80;84.60
666;DHT22;315;48.738;9.126;2023-02-27T18:05:58;1.70;85.40
666;DHT22;315;48.738;9.126;2023-02-27T18:08:23;1.60;85.60
666;DHT22;315;48.738;9.126;2023-02-27T18:10:50;1.60;86.50
666;DHT22;315;48.738;9.126;2023-02-27T18:13:16;1.60;87.30
666;DHT22;315;48.738;9.126;2023-02-27T18:15:43;1.60;87.10
666;DHT22;315;48.738;9.126;2023-02-27T18:18:09;1.50;87.50
666;DHT22;315;48.738;9.126;2023-02-27T18:20:35;1.50;88.10
666;DHT22;315;48.738;9.126;2023-02-27T18:23:01;1.50;88.30
666;DHT22;315;48.738;9.126;2023-02-27T18:25:28;1.50;89.90
666;DHT22;315;48.738;9.126;2023-02-27T18:27:54;1.50;89.80
666;DHT22;315;48.738;9.126;2023-02-27T18:30:20;1.50;90.10
666;DHT22;315;48.738;9.126;2023-02-27T18:32:46;1.40;90.30
666;DHT22;315;48.738;9.126;2023-02-27T18:35:11;1.40;90.20
666;DHT22;315;48.738;9.126;2023-02-27T18:37:38;1.40;90.20
666;DHT22;315;48.738;9.126;2023-02-27T18:40:04;1.40;90.10
666;DHT22;315;48.738;9.126;2023-02-27T18:42:30;1.40;90.30
666;DHT22;315;48.738;9.126;2023-02-27T18:44:56;1.40;90.90
666;DHT22;315;48.738;9.126;2023-02-27T18:47:22;1.40;89.10
666;DHT22;315;48.738;9.126;2023-02-27T18:49:48;1.30;90.40
666;DHT22;315;48.738;9.126;2023-02-27T18:52:13;1.20;90.60
666;DHT22;315;48.738;9.126;2023-02-27T18:54:39;1.20;90.80
666;DHT22;315;48.738;9.126;2023-02-27T18:57:06;1.20;90.80
666;DHT22;315;48.738;9.126;2023-02-27T18:59:32;1.10;91.20
666;DHT22;315;48.738;9.126;2023-02-27T19:01:57;1.00;91.10
666;DHT22;315;48.738;9.126;2023-02-27T19:04:23;1.10;91.80